| time (UTC) | temp F | wind direction | speed knots | gust knots | rain 1hr in | rain 24hr in | rain mn in | humidity % | barometer mb |
| 20260508044317 | 60 | 225 | 1.7 | 1.7 | 0.00 | 0.00 | 0.00 | 100 | 1012.9 |
| 20260508041315 | 58 | 270 | 0.9 | 1.7 | 0.00 | 0.00 | 0.00 | 100 | 1012.2 |
| 20260508035313 | 57 | 270 | 0.0 | 0.0 | 0.00 | 0.00 | 0.00 | 100 | 1012.2 |
| 20260508033312 | 58 | 248 | 0.0 | 0.0 | 0.00 | 0.00 | 0.00 | 100 | 1012.2 |
| 20260508031312 | 58 | 270 | 0.0 | 0.0 | 0.00 | 0.00 | 0.00 | 100 | 1011.7 |
| 20260508024311 | 58 | 225 | 0.0 | 0.0 | 0.00 | 0.00 | 0.00 | 100 | 1011.6 |
| 20260508023311 | 58 | 135 | 0.0 | 0.0 | 0.00 | 0.00 | 0.00 | 100 | 1011.5 |
| 20260508021309 | 58 | 315 | 0.0 | 0.0 | 0.00 | 0.00 | 0.00 | 100 | 1011.5 |
| 20260508020309 | 58 | 0 | 0.9 | 1.7 | 0.00 | 0.00 | 0.00 | 100 | 1011.6 |
| 20260508013307 | 59 | 315 | 0.0 | 0.9 | 0.00 | 0.00 | 0.00 | 100 | 1011.5 |
| 20260508011306 | 59 | 90 | 0.0 | 0.0 | 0.00 | 0.00 | 0.00 | 100 | 1011.5 |
| 20260508010306 | 59 | 135 | 0.0 | 0.9 | 0.00 | 0.00 | 0.00 | 100 | 1011.0 |
| 20260508005306 | 59 | 135 | 0.9 | 1.7 | 0.00 | 0.00 | 0.00 | 100 | 1011.2 |
| 20260508004304 | 59 | 90 | 1.7 | 2.6 | 0.00 | 0.00 | 0.00 | 100 | 1011.3 |
| 20260508003303 | 59 | 141 | 4.3 | 7.0 | 0.00 | 0.00 | 0.00 | 100 | 1011.7 |
| 20260508002306 | 59 | 135 | 2.6 | 3.5 | 0.00 | 0.00 | 0.00 | 100 | 1011.8 |
| 20260508001301 | 59 | 0 | 1.7 | 2.6 | 0.00 | 0.00 | 0.00 | 100 | 1012.0 |
| 20260507235306 | 59 | 0 | 3.5 | 3.5 | 0.00 | 0.00 | 0.00 | 100 | 1012.1 |
| 20260507234302 | 59 | 0 | 3.5 | 3.5 | 0.00 | 0.00 | 0.00 | 100 | 1012.4 |
| 20260507231304 | 59 | 270 | 1.7 | 1.7 | 0.00 | 0.00 | 0.00 | 100 | 1013.4 |
| 20260507230304 | 59 | 292 | 3.5 | 4.3 | 0.00 | 0.00 | 0.00 | 100 | 1013.5 |
| 20260507221301 | 60 | 225 | 1.7 | 1.7 | 0.00 | 0.00 | 0.00 | 100 | 1013.6 |
| 20260507214304 | 59 | 315 | 2.6 | 3.5 | 0.00 | 0.00 | 0.00 | 100 | 1012.4 |
| 20260507213303 | 59 | 0 | 7.0 | 7.8 | 0.00 | 0.00 | 0.00 | 100 | 1012.1 |
| 20260507212306 | 59 | 180 | 4.3 | 7.0 | 0.00 | 0.00 | 0.00 | 100 | 1012.2 |
| 20260507211304 | 59 | 135 | 6.1 | 8.7 | 0.00 | 0.00 | 0.00 | 100 | 1011.8 |
| 20260507205306 | 59 | 0 | 4.3 | 7.0 | 0.00 | 0.00 | 0.00 | 100 | 1012.2 |
| 20260507203303 | 60 | 0 | 2.6 | 4.3 | 0.00 | 0.00 | 0.00 | 100 | 1012.2 |
| 20260507200304 | 60 | 0 | 0.9 | 1.7 | 0.00 | 0.00 | 0.00 | 100 | 1012.4 |
| 20260507194304 | 60 | 225 | 6.1 | 7.8 | 0.00 | 0.00 | 0.00 | 100 | 1012.0 |
| 20260507193303 | 60 | 315 | 4.3 | 7.0 | 0.00 | 0.00 | 0.00 | 100 | 1011.8 |
| 20260507190304 | 60 | 141 | 1.7 | 1.7 | 0.00 | 0.00 | 0.00 | 100 | 1011.5 |
| 20260507185305 | 60 | 0 | 1.7 | 2.6 | 0.00 | 0.00 | 0.00 | 100 | 1011.2 |
| 20260507184301 | 60 | 0 | 2.6 | 3.5 | 0.00 | 0.00 | 0.00 | 100 | 1011.7 |
| 20260507183303 | 60 | 315 | 1.7 | 1.7 | 0.00 | 0.00 | 0.00 | 100 | 1011.6 |
| 20260507182306 | 60 | 0 | 2.6 | 3.5 | 0.00 | 0.00 | 0.00 | 100 | 1011.2 |
| 20260507180303 | 60 | 225 | 2.6 | 3.5 | 0.00 | 0.00 | 0.00 | 100 | 1011.5 |
| 20260507173302 | 60 | 180 | 4.3 | 7.0 | 0.00 | 0.00 | 0.00 | 100 | 1011.2 |
| 20260507171303 | 61 | 0 | 6.1 | 7.0 | 0.00 | 0.00 | 0.00 | 100 | 1011.1 |
| 20260507164302 | 61 | 270 | 7.0 | 10.4 | 0.00 | 0.00 | 0.00 | 100 | 1011.2 |
| 20260507163305 | 62 | 90 | 8.7 | 13.9 | 0.00 | 0.00 | 0.00 | 100 | 1011.0 |
| 20260507161303 | 63 | 225 | 8.7 | 11.3 | 0.00 | 0.00 | 0.00 | 100 | 1011.1 |
| 20260507155306 | 64 | 90 | 7.8 | 11.3 | 0.00 | 0.00 | 0.00 | 100 | 1011.3 |
| 20260507154302 | 64 | 270 | 7.8 | 13.0 | 0.00 | 0.00 | 0.00 | 100 | 1011.7 |
| 20260507153303 | 64 | 180 | 4.3 | 7.0 | 0.00 | 0.00 | 0.00 | 100 | 1011.2 |
| 20260507144303 | 65 | 315 | 9.6 | 15.6 | 0.00 | 0.00 | 0.00 | 100 | 1010.6 |
| 20260507143302 | 65 | 0 | 7.8 | 11.3 | 0.00 | 0.00 | 0.00 | 100 | 1010.5 |
| 20260507141303 | 64 | 202 | 11.3 | 13.9 | 0.00 | 0.00 | 0.00 | 100 | 1010.8 |
| 20260507135306 | 63 | 180 | 10.4 | 14.8 | 0.00 | 0.00 | 0.00 | 100 | 1010.9 |
| 20260507133302 | 64 | 90 | 9.6 | 13.9 | 0.00 | 0.00 | 0.00 | 100 | 1010.9 |
| 20260507131302 | 64 | 225 | 13.9 | 17.4 | 0.00 | 0.00 | 0.00 | 100 | 1011.0 |
| 20260507125306 | 64 | 135 | 8.7 | 13.9 | 0.00 | 0.00 | 0.00 | 100 | 1011.2 |
| 20260507115217 | 65 | 180 | 13.0 | 19.1 | 0.00 | 0.00 | 0.00 | 100 | 1011.5 |
| 20260507112215 | 65 | 90 | 13.9 | 19.1 | 0.00 | 0.00 | 0.00 | 100 | 1011.3 |
| 20260507111215 | 64 | 135 | 10.4 | 15.6 | 0.00 | 0.00 | 0.00 | 100 | 1011.5 |
| 20260507102211 | 64 | 180 | 13.0 | 16.5 | 0.00 | 0.00 | 0.00 | 100 | 1011.7 |
| 20260507101210 | 64 | 135 | 18.2 | 27.8 | 0.00 | 0.00 | 0.00 | 100 | 1011.8 |
| 20260507100210 | 65 | 90 | 8.7 | 13.9 | 0.00 | 0.00 | 0.00 | 100 | 1012.1 |
| 20260507095211 | 64 | 135 | 11.3 | 18.2 | 0.00 | 0.00 | 0.00 | 100 | 1011.9 |
| 20260507094208 | 64 | 315 | 9.6 | 13.9 | 0.00 | 0.00 | 0.00 | 100 | 1011.9 |
| 20260507093208 | 64 | 90 | 8.7 | 14.8 | 0.00 | 0.00 | 0.00 | 100 | 1012.1 |
| 20260507085205 | 64 | 180 | 13.9 | 20.0 | 0.00 | 0.00 | 0.00 | 100 | 1012.2 |
| 20260507084205 | 64 | 158 | 13.0 | 17.4 | 0.00 | 0.00 | 0.00 | 100 | 1012.2 |
| 20260507080203 | 63 | 0 | 13.9 | 20.9 | 0.00 | 0.00 | 0.00 | 100 | 1012.3 |
| 20260507075204 | 63 | 292 | 7.8 | 10.4 | 0.00 | 0.00 | 0.00 | 100 | 1012.0 |
| 20260507074203 | 63 | 141 | 9.6 | 13.0 | 0.00 | 0.00 | 0.00 | 100 | 1012.4 |
| 20260507072204 | 62 | 315 | 13.0 | 16.5 | 0.00 | 0.00 | 0.00 | 100 | 1012.1 |
| 20260507071202 | 61 | 130 | 11.3 | 14.8 | 0.00 | 0.00 | 0.00 | 100 | 1012.2 |
| 20260507070202 | 61 | 135 | 6.1 | 8.7 | 0.00 | 0.00 | 0.00 | 100 | 1012.2 |
| 20260507064202 | 61 | 225 | 7.0 | 12.2 | 0.00 | 0.00 | 0.00 | 100 | 1011.9 |
| 20260507062203 | 61 | 90 | 7.0 | 14.8 | 0.00 | 0.00 | 0.00 | 100 | 1012.0 |
| 20260507061204 | 61 | 0 | 13.9 | 20.0 | 0.00 | 0.00 | 0.00 | 100 | 1011.9 |
| 20260507060204 | 60 | 315 | 13.9 | 18.2 | 0.00 | 0.00 | 0.00 | 100 | 1011.7 |
| 20260507055205 | 60 | 141 | 15.6 | 21.7 | 0.00 | 0.00 | 0.00 | 100 | 1011.6 |
| 20260507054204 | 60 | 180 | 13.0 | 19.1 | 0.00 | 0.00 | 0.00 | 100 | 1011.3 |
| 20260507052203 | 60 | 90 | 13.0 | 21.7 | 0.00 | 0.00 | 0.00 | 100 | 1011.5 |